KAYS/AYS METAR and TAF weather

Enter ICAO airport designator
Station Type Date Time Source
KAYS METAR 2021/05/14 07:15 UTC NOAA

KAYS 140715Z AUTO 00000KT 10SM CLR 11/11 A3017 RMK AO2 T01130107


Station Type Date Time Source
KAYS Decoded METAR 2021/05/14 07:15 UTC NOAA

Waycross / Ware County, Ga, GA, United States (KAYS) 31-15N 082-24W 46M
May 14, 2021 - 03:15 AM EDT / 2021.05.14 0715 UTC
Wind: Calm:0
Visibility: 10 mile(s):0
Sky conditions: clear
Temperature: 52.3 F (11.3 C)
Dew Point: 51.3 F (10.7 C)
Relative Humidity: 96%
Pressure (altimeter): 30.17 in. Hg (1021 hPa)
ob: KAYS 140715Z AUTO 00000KT 10SM CLR 11/11 A3017 RMK AO2 T01130107
cycle: 7

Station Type Date Time Source
KAYS TAF UTC NOAA

Error!

Example: see airport list